createdAt,value
2023-05-02T00:00:50.712Z,9.70
2023-05-02T00:03:17.671Z,9.70
2023-05-02T00:05:44.766Z,9.70
2023-05-02T00:08:11.960Z,9.70
2023-05-02T00:10:38.652Z,9.70
2023-05-02T00:13:05.374Z,9.70
2023-05-02T00:15:32.041Z,9.70
2023-05-02T00:17:58.729Z,9.60
2023-05-02T00:20:25.668Z,9.60
2023-05-02T00:22:52.225Z,9.50
2023-05-02T00:25:18.802Z,9.50
2023-05-02T00:27:46.682Z,9.50
2023-05-02T00:30:14.181Z,9.40
2023-05-02T00:32:40.956Z,9.30
2023-05-02T00:35:07.951Z,9.30
2023-05-02T00:37:34.531Z,9.30
2023-05-02T00:40:01.493Z,9.30
2023-05-02T00:42:31.461Z,9.20
2023-05-02T00:44:58.236Z,9.20
2023-05-02T00:47:24.974Z,9.20
2023-05-02T00:49:51.661Z,9.20
2023-05-02T00:52:18.668Z,9.20
2023-05-02T00:54:45.478Z,9.20
2023-05-02T00:57:12.083Z,9.20
2023-05-02T00:59:39.013Z,9.20
2023-05-02T01:02:21.513Z,9.10
2023-05-02T01:04:50.893Z,9.10
2023-05-02T01:07:23.595Z,9.20
2023-05-02T01:10:09.307Z,9.20
2023-05-02T01:12:42.908Z,9.10
2023-05-02T01:15:12.256Z,9.10
2023-05-02T01:17:39.743Z,9.10
2023-05-02T01:20:08.548Z,9.10
2023-05-02T01:22:37.243Z,9.20
2023-05-02T01:25:20.473Z,9.20
2023-05-02T01:28:07.376Z,9.20
2023-05-02T01:30:36.232Z,9.30
2023-05-02T01:33:04.523Z,9.30
2023-05-02T01:35:32.791Z,9.30
2023-05-02T01:38:01.295Z,9.30
2023-05-02T01:40:28.793Z,9.40
2023-05-02T01:42:57.501Z,9.50
2023-05-02T01:45:24.595Z,9.50
2023-05-02T01:47:51.654Z,9.60
2023-05-02T01:50:20.982Z,9.60
2023-05-02T01:52:49.703Z,9.60
2023-05-02T01:55:17.497Z,9.60
2023-05-02T01:57:45.997Z,9.70
2023-05-02T02:00:12.917Z,9.70
2023-05-02T02:02:40.981Z,9.70
2023-05-02T02:05:08.689Z,9.80
2023-05-02T02:07:35.578Z,9.70
2023-05-02T02:10:02.419Z,9.80
2023-05-02T02:12:36.478Z,9.70
2023-05-02T02:15:06.574Z,9.80
2023-05-02T02:17:50.491Z,9.80
2023-05-02T02:20:17.728Z,9.80
2023-05-02T02:22:44.859Z,9.80
2023-05-02T02:25:12.935Z,9.80
2023-05-02T02:27:40.264Z,9.80
2023-05-02T02:30:07.279Z,9.90
2023-05-02T02:32:34.003Z,9.90
2023-05-02T02:35:01.252Z,9.90
2023-05-02T02:37:32.621Z,9.90
2023-05-02T02:40:02.586Z,10.00
2023-05-02T02:42:48.036Z,10.00
2023-05-02T02:45:18.852Z,10.00
2023-05-02T02:47:57.794Z,10.00
2023-05-02T02:50:31.054Z,10.10
2023-05-02T02:53:00.608Z,10.20
2023-05-02T02:55:34.377Z,10.10
2023-05-02T02:58:08.035Z,10.10
2023-05-02T03:00:35.428Z,10.20
2023-05-02T03:03:02.121Z,10.20
2023-05-02T03:05:29.180Z,10.20
2023-05-02T03:07:55.988Z,10.20
2023-05-02T03:10:22.727Z,10.20
2023-05-02T03:12:49.529Z,10.20
2023-05-02T03:15:20.262Z,10.20
2023-05-02T03:17:46.937Z,10.20
2023-05-02T03:20:13.606Z,10.20
2023-05-02T03:22:40.276Z,10.20
2023-05-02T03:25:07.131Z,10.20
2023-05-02T03:27:33.775Z,10.30
2023-05-02T03:30:00.716Z,10.20
2023-05-02T03:32:27.714Z,10.20
2023-05-02T03:34:58.434Z,10.20
2023-05-02T03:37:25.167Z,10.20
2023-05-02T03:39:51.752Z,10.30
2023-05-02T03:42:18.312Z,10.20
2023-05-02T03:44:45.091Z,10.30
2023-05-02T03:47:13.660Z,10.30
2023-05-02T03:49:40.406Z,10.30
2023-05-02T03:52:07.060Z,10.40
2023-05-02T03:54:33.739Z,10.40
2023-05-02T03:57:00.807Z,10.40
2023-05-02T03:59:27.443Z,10.50
2023-05-02T04:01:54.054Z,10.50
2023-05-02T04:04:21.066Z,10.50
2023-05-02T04:06:47.826Z,10.50
2023-05-02T04:09:14.472Z,10.60
2023-05-02T04:11:41.990Z,10.60
2023-05-02T04:14:08.769Z,10.70
2023-05-02T04:16:35.431Z,10.70
2023-05-02T04:19:02.060Z,10.70
2023-05-02T04:21:28.770Z,10.80
2023-05-02T04:23:55.328Z,10.80
2023-05-02T04:26:21.875Z,10.80
2023-05-02T04:28:48.437Z,10.90
2023-05-02T04:31:15.109Z,10.90
2023-05-02T04:33:41.792Z,11.00
2023-05-02T04:36:09.917Z,11.00
2023-05-02T04:38:36.528Z,11.00
2023-05-02T04:41:08.889Z,11.10
2023-05-02T04:43:36.332Z,11.10
2023-05-02T04:46:03.009Z,11.10
2023-05-02T04:48:29.863Z,11.10
2023-05-02T04:50:56.529Z,11.20
2023-05-02T04:53:23.566Z,11.30
2023-05-02T04:55:50.156Z,11.30
2023-05-02T04:58:16.862Z,11.30
2023-05-02T05:00:43.433Z,11.30
2023-05-02T05:03:10.129Z,11.40
2023-05-02T05:05:36.755Z,11.50
2023-05-02T05:08:03.369Z,11.50
2023-05-02T05:10:29.952Z,11.50
2023-05-02T05:12:56.517Z,11.60
2023-05-02T05:15:25.441Z,11.60
2023-05-02T05:17:52.049Z,11.70
2023-05-02T05:20:18.654Z,11.70
2023-05-02T05:22:45.300Z,11.70
2023-05-02T05:25:11.911Z,11.80
2023-05-02T05:27:38.561Z,11.80
2023-05-02T05:30:06.205Z,11.90
2023-05-02T05:32:33.511Z,11.90
2023-05-02T05:35:00.266Z,12.00
2023-05-02T05:37:26.950Z,12.00
2023-05-02T05:39:53.558Z,12.10
2023-05-02T05:42:20.145Z,12.10
2023-05-02T05:44:46.708Z,12.20
2023-05-02T05:47:18.670Z,12.30
2023-05-02T05:49:45.635Z,12.40
2023-05-02T05:52:12.181Z,12.50
2023-05-02T05:54:38.764Z,12.60
2023-05-02T05:57:05.372Z,12.70
2023-05-02T05:59:34.785Z,12.80
2023-05-02T06:02:01.384Z,12.80
2023-05-02T06:04:28.040Z,12.90
2023-05-02T06:06:55.218Z,12.90
2023-05-02T06:09:21.930Z,13.00
2023-05-02T06:11:48.864Z,13.10
2023-05-02T06:14:16.261Z,13.20
2023-05-02T06:16:42.922Z,13.20
2023-05-02T06:19:09.579Z,13.30
2023-05-02T06:21:36.629Z,13.30
2023-05-02T06:24:03.349Z,13.30
2023-05-02T06:26:29.904Z,13.40
2023-05-02T06:28:56.476Z,13.50
2023-05-02T06:31:23.188Z,13.60
2023-05-02T06:33:49.876Z,13.60
2023-05-02T06:36:16.455Z,13.70
2023-05-02T06:38:43.029Z,13.80
2023-05-02T06:41:17.987Z,13.80
2023-05-02T06:43:44.989Z,14.00
2023-05-02T06:46:11.560Z,14.10
2023-05-02T06:48:38.194Z,14.20
2023-05-02T06:51:04.881Z,14.30
2023-05-02T06:53:33.008Z,14.40
2023-05-02T06:55:59.962Z,14.50
2023-05-02T06:58:26.565Z,14.70
2023-05-02T07:00:53.210Z,14.80
2023-05-02T07:03:19.850Z,14.80
2023-05-02T07:05:46.480Z,15.00
2023-05-02T07:08:13.095Z,15.20
2023-05-02T07:10:39.723Z,15.40
2023-05-02T07:13:06.314Z,15.70
2023-05-02T07:15:32.896Z,15.90
2023-05-02T07:17:59.566Z,16.20
2023-05-02T07:20:26.209Z,16.50
2023-05-02T07:22:52.772Z,16.70
2023-05-02T07:25:19.392Z,17.00
2023-05-02T07:27:46.080Z,17.20
2023-05-02T07:30:13.016Z,17.40
2023-05-02T07:32:39.719Z,17.60
2023-05-02T07:35:06.647Z,17.80
2023-05-02T07:37:34.719Z,18.00
2023-05-02T07:40:01.841Z,18.20
2023-05-02T07:42:31.978Z,18.40
2023-05-02T07:44:58.709Z,18.80
2023-05-02T07:47:26.547Z,19.10
2023-05-02T07:49:54.089Z,19.30
2023-05-02T07:52:20.751Z,19.50
2023-05-02T07:54:50.543Z,19.70
2023-05-02T07:57:17.591Z,19.80
2023-05-02T07:59:44.573Z,19.90
2023-05-02T08:02:13.545Z,19.90
2023-05-02T08:04:41.156Z,20.00
2023-05-02T08:07:07.877Z,20.00
2023-05-02T08:09:34.493Z,20.10
2023-05-02T08:12:03.315Z,20.30
2023-05-02T08:14:30.030Z,20.40
2023-05-02T08:16:56.582Z,20.70
2023-05-02T08:19:23.148Z,20.90
2023-05-02T08:21:49.729Z,21.00
2023-05-02T08:24:16.277Z,21.30
2023-05-02T08:26:42.907Z,21.40
2023-05-02T08:29:11.559Z,21.30
2023-05-02T08:31:39.221Z,21.20
2023-05-02T08:34:05.864Z,20.90
2023-05-02T08:36:32.584Z,20.90
2023-05-02T08:38:59.210Z,20.90
2023-05-02T08:41:28.817Z,21.00
2023-05-02T08:43:56.440Z,21.20
2023-05-02T08:46:23.693Z,21.50
2023-05-02T08:48:50.530Z,21.70
2023-05-02T08:53:50.369Z,22.20
2023-05-02T08:56:16.948Z,22.40
2023-05-02T08:58:43.546Z,22.60
2023-05-02T09:01:13.095Z,22.90
2023-05-02T09:03:41.191Z,23.00
2023-05-02T09:06:14.694Z,22.90
2023-05-02T09:08:42.111Z,22.70
2023-05-02T09:11:09.576Z,22.30
2023-05-02T09:13:40.402Z,22.00
2023-05-02T09:16:10.929Z,21.80
2023-05-02T09:18:41.638Z,21.90
2023-05-02T09:21:09.800Z,22.00
2023-05-02T09:23:36.414Z,22.20
2023-05-02T09:26:11.589Z,22.40
2023-05-02T09:28:39.646Z,22.60
2023-05-02T09:31:07.258Z,22.90
2023-05-02T09:33:34.548Z,23.00
2023-05-02T09:36:01.270Z,22.70
2023-05-02T09:38:27.856Z,22.60
2023-05-02T09:40:57.725Z,22.70
2023-05-02T09:43:24.386Z,22.80
2023-05-02T09:46:17.332Z,22.80
2023-05-02T09:48:54.309Z,23.00
2023-05-02T09:51:21.397Z,23.30
2023-05-02T09:53:48.183Z,23.50
2023-05-02T09:56:15.494Z,23.50
2023-05-02T09:58:42.161Z,23.50
2023-05-02T10:01:14.028Z,23.50
2023-05-02T10:03:41.356Z,23.60
2023-05-02T10:06:09.137Z,23.90
2023-05-02T10:08:37.295Z,24.30
2023-05-02T10:11:06.055Z,24.70
2023-05-02T10:13:34.558Z,24.90
2023-05-02T10:16:05.267Z,25.00
2023-05-02T10:18:41.334Z,24.70
2023-05-02T10:21:12.231Z,24.30
2023-05-02T10:23:41.622Z,24.10
2023-05-02T10:26:08.401Z,23.80
2023-05-02T10:28:35.357Z,23.60
2023-05-02T10:31:02.897Z,23.40
2023-05-02T10:33:31.488Z,23.40
2023-05-02T10:35:58.553Z,23.70
2023-05-02T10:38:25.296Z,23.80
2023-05-02T10:40:56.090Z,23.90
2023-05-02T10:43:24.249Z,23.80
2023-05-02T10:45:50.915Z,23.70
2023-05-02T10:48:20.811Z,23.40
2023-05-02T10:50:47.554Z,23.10
2023-05-02T10:53:26.990Z,22.90
2023-05-02T10:56:12.714Z,22.80
2023-05-02T10:58:39.596Z,22.90
2023-05-02T11:01:34.153Z,22.80
2023-05-02T11:04:01.447Z,22.80
2023-05-02T11:06:29.506Z,23.00
2023-05-02T11:09:15.411Z,23.20
2023-05-02T11:11:43.654Z,23.50
2023-05-02T11:14:11.270Z,23.80
2023-05-02T11:16:56.979Z,24.00
2023-05-02T11:19:23.722Z,24.20
2023-05-02T11:21:50.660Z,24.10
2023-05-02T11:24:35.700Z,24.10
2023-05-02T11:27:21.032Z,24.10
2023-05-02T11:29:57.687Z,24.10
2023-05-02T11:32:25.999Z,24.00
2023-05-02T11:34:53.081Z,24.10
2023-05-02T11:37:21.067Z,24.20
2023-05-02T11:39:47.808Z,24.30
2023-05-02T11:42:30.152Z,24.30
2023-05-02T11:44:57.621Z,24.30
2023-05-02T11:47:25.107Z,24.30
2023-05-02T11:49:51.867Z,24.40
2023-05-02T11:52:18.434Z,24.40
2023-05-02T11:54:45.023Z,24.50
2023-05-02T11:57:11.744Z,24.70
2023-05-02T11:59:50.875Z,24.70
2023-05-02T12:02:17.525Z,24.80
2023-05-02T12:04:44.797Z,24.70
2023-05-02T12:07:12.310Z,24.70
2023-05-02T12:09:54.806Z,24.80
2023-05-02T12:12:21.795Z,24.80
2023-05-02T12:14:48.867Z,24.70
2023-05-02T12:17:15.674Z,24.60
2023-05-02T12:19:42.435Z,24.30
2023-05-02T12:22:09.866Z,24.00
2023-05-02T12:24:36.596Z,24.00
2023-05-02T12:27:09.741Z,23.80
2023-05-02T12:29:40.427Z,23.60
2023-05-02T12:32:06.994Z,23.30
2023-05-02T12:34:34.124Z,23.20
2023-05-02T12:37:01.048Z,23.10
2023-05-02T12:39:37.562Z,23.10
2023-05-02T12:42:11.821Z,23.30
2023-05-02T12:44:39.275Z,23.60
2023-05-02T12:47:05.899Z,23.70
2023-05-02T12:49:32.833Z,23.80
2023-05-02T12:52:00.141Z,23.80
2023-05-02T12:54:26.778Z,23.80
2023-05-02T12:56:53.418Z,23.70
2023-05-02T12:59:29.595Z,23.60
2023-05-02T13:01:56.216Z,23.50
2023-05-02T13:04:33.503Z,23.30
2023-05-02T13:07:00.200Z,23.20
2023-05-02T13:09:27.020Z,23.10
2023-05-02T13:11:54.174Z,23.20
2023-05-02T13:14:20.753Z,23.40
2023-05-02T13:16:47.390Z,23.70
2023-05-02T13:19:14.161Z,23.70
2023-05-02T13:21:40.805Z,23.60
2023-05-02T13:24:07.378Z,23.50
2023-05-02T13:26:33.984Z,23.30
2023-05-02T13:29:00.633Z,23.40
2023-05-02T13:31:27.314Z,23.40
2023-05-02T13:33:53.965Z,23.30
2023-05-02T13:36:20.544Z,23.40
2023-05-02T13:38:47.134Z,23.50
2023-05-02T13:41:13.725Z,23.60
2023-05-02T13:43:40.950Z,23.50
2023-05-02T13:46:07.699Z,23.70
2023-05-02T13:48:34.341Z,23.70
2023-05-02T13:51:00.942Z,23.70
2023-05-02T13:53:27.508Z,23.90
2023-05-02T13:55:54.125Z,24.20
2023-05-02T13:58:21.518Z,24.40
2023-05-02T14:00:48.896Z,24.60
2023-05-02T14:03:16.284Z,24.50
2023-05-02T14:05:43.799Z,24.50
2023-05-02T14:08:10.841Z,24.40
2023-05-02T14:10:37.910Z,24.20
2023-05-02T14:13:04.822Z,24.10
2023-05-02T14:15:31.679Z,23.90
2023-05-02T14:17:58.333Z,23.90
2023-05-02T14:20:24.923Z,24.00
2023-05-02T14:22:51.544Z,24.20
2023-05-02T14:25:20.412Z,24.20
2023-05-02T14:27:47.075Z,24.50
2023-05-02T14:30:13.646Z,24.60
2023-05-02T14:32:40.321Z,24.60
2023-05-02T14:35:07.074Z,24.60
2023-05-02T14:37:33.665Z,24.50
2023-05-02T14:40:00.461Z,24.50
2023-05-02T14:42:27.210Z,24.50
2023-05-02T14:44:53.791Z,24.50
2023-05-02T14:47:20.956Z,24.40
2023-05-02T14:49:47.511Z,24.50
2023-05-02T14:52:14.073Z,24.70
2023-05-02T14:54:40.713Z,24.70
2023-05-02T14:57:07.826Z,24.80
2023-05-02T14:59:36.018Z,25.00
2023-05-02T15:02:02.906Z,24.80
2023-05-02T15:04:30.371Z,24.80
2023-05-02T15:06:58.336Z,24.70
2023-05-02T15:09:26.675Z,24.60
2023-05-02T15:11:53.438Z,24.30
2023-05-02T15:14:20.040Z,24.10
2023-05-02T15:16:46.935Z,23.90
2023-05-02T15:19:13.827Z,23.90
2023-05-02T15:21:40.601Z,23.90
2023-05-02T15:24:07.266Z,23.80
2023-05-02T15:26:35.084Z,23.80
2023-05-02T15:29:01.786Z,23.70
2023-05-02T15:31:28.577Z,23.60
2023-05-02T15:33:55.129Z,23.30
2023-05-02T15:36:26.350Z,23.10
2023-05-02T15:38:52.969Z,22.90
2023-05-02T15:41:19.532Z,22.60
2023-05-02T15:43:46.287Z,22.50
2023-05-02T15:46:12.905Z,22.40
2023-05-02T15:48:39.594Z,22.40
2023-05-02T15:51:06.250Z,22.30
2023-05-02T15:53:33.016Z,22.20
2023-05-02T15:55:59.583Z,22.20
2023-05-02T15:58:26.151Z,22.00
2023-05-02T16:00:52.913Z,21.80
2023-05-02T16:03:19.759Z,21.60
2023-05-02T16:05:46.721Z,21.40
2023-05-02T16:08:13.358Z,21.30
2023-05-02T16:10:40.360Z,21.10
2023-05-02T16:13:07.084Z,21.00
2023-05-02T16:15:33.680Z,20.90
2023-05-02T16:18:00.279Z,20.80
2023-05-02T16:20:28.340Z,20.70
2023-05-02T16:22:55.228Z,20.60
2023-05-02T16:25:21.944Z,20.50
2023-05-02T16:27:48.861Z,20.40
2023-05-02T16:30:15.745Z,20.40
2023-05-02T16:32:42.376Z,20.40
2023-05-02T16:35:12.794Z,20.40
2023-05-02T16:37:40.916Z,20.40
2023-05-02T16:40:08.608Z,20.50
2023-05-02T16:42:35.584Z,20.50
2023-05-02T16:45:02.211Z,20.60
2023-05-02T16:47:28.784Z,20.70
2023-05-02T16:49:56.092Z,20.70
2023-05-02T16:52:22.967Z,20.70
2023-05-02T16:54:49.594Z,20.60
2023-05-02T16:57:20.892Z,20.60
2023-05-02T16:59:48.243Z,20.60
2023-05-02T17:02:15.738Z,20.60
2023-05-02T17:04:42.496Z,20.50
2023-05-02T17:07:09.190Z,20.50
2023-05-02T17:09:37.161Z,20.40
2023-05-02T17:12:04.296Z,20.40
2023-05-02T17:14:32.318Z,20.30
2023-05-02T17:16:59.318Z,20.30
2023-05-02T17:19:26.814Z,20.20
2023-05-02T17:21:54.257Z,20.10
2023-05-02T17:24:21.051Z,20.00
2023-05-02T17:26:47.626Z,19.90
2023-05-02T17:29:14.288Z,19.80
2023-05-02T17:31:41.031Z,19.70
2023-05-02T17:34:07.722Z,19.60
2023-05-02T17:36:35.285Z,19.50
2023-05-02T17:39:02.240Z,19.40
2023-05-02T17:41:28.825Z,19.30
2023-05-02T17:43:55.620Z,19.30
2023-05-02T17:46:22.243Z,19.10
2023-05-02T17:48:49.079Z,19.00
2023-05-02T17:51:16.068Z,18.80
2023-05-02T17:53:43.475Z,18.70
2023-05-02T17:56:10.726Z,18.70
2023-05-02T17:58:37.585Z,18.50
2023-05-02T18:01:08.087Z,18.50
2023-05-02T18:03:34.985Z,18.30
2023-05-02T18:06:12.667Z,18.30
2023-05-02T18:08:39.227Z,18.20
2023-05-02T18:11:12.866Z,18.10
2023-05-02T18:13:39.744Z,18.00
2023-05-02T18:16:06.348Z,17.90
2023-05-02T18:18:34.878Z,17.80
2023-05-02T18:21:02.447Z,17.80
2023-05-02T18:23:29.260Z,17.70
2023-05-02T18:25:56.010Z,17.60
2023-05-02T18:28:22.702Z,17.50
2023-05-02T18:30:49.284Z,17.50
2023-05-02T18:33:16.065Z,17.30
2023-05-02T18:35:48.963Z,17.30
2023-05-02T18:38:16.132Z,17.20
2023-05-02T18:40:43.084Z,17.10
2023-05-02T18:43:09.735Z,17.00
2023-05-02T18:45:36.514Z,16.90
2023-05-02T18:48:03.425Z,16.80
2023-05-02T18:50:30.073Z,16.70
2023-05-02T18:52:56.598Z,16.70
2023-05-02T18:55:25.211Z,16.60
2023-05-02T18:57:52.077Z,16.50
2023-05-02T19:00:20.130Z,16.50
2023-05-02T19:02:47.310Z,16.50
2023-05-02T19:05:13.909Z,16.50
2023-05-02T19:07:40.427Z,16.40
2023-05-02T19:10:07.151Z,16.30
2023-05-02T19:12:33.660Z,16.30
2023-05-02T19:15:00.514Z,16.20
2023-05-02T19:17:27.633Z,16.20
2023-05-02T19:19:55.594Z,16.10
2023-05-02T19:22:23.333Z,16.00
2023-05-02T19:24:50.828Z,16.00
2023-05-02T19:27:17.370Z,15.90
2023-05-02T19:29:44.246Z,15.80
2023-05-02T19:32:10.937Z,15.80
2023-05-02T19:34:37.725Z,15.70
2023-05-02T19:37:04.294Z,15.70
2023-05-02T19:39:31.621Z,15.60
2023-05-02T19:41:58.213Z,15.50
2023-05-02T19:44:24.796Z,15.50
2023-05-02T19:46:51.438Z,15.40
2023-05-02T19:49:18.013Z,15.40
2023-05-02T19:51:44.606Z,15.30
2023-05-02T19:54:11.525Z,15.20
2023-05-02T19:56:38.165Z,15.10
2023-05-02T19:59:04.746Z,15.00
2023-05-02T20:01:31.467Z,15.00
2023-05-02T20:03:58.329Z,14.90
2023-05-02T20:06:25.517Z,14.80
2023-05-02T20:08:52.908Z,14.70
2023-05-02T20:11:19.709Z,14.70
2023-05-02T20:13:46.316Z,14.60
2023-05-02T20:16:13.663Z,14.50
2023-05-02T20:18:40.474Z,14.40
2023-05-02T20:21:07.066Z,14.30
2023-05-02T20:23:33.633Z,14.30
2023-05-02T20:26:00.207Z,14.30
2023-05-02T20:28:26.770Z,14.30
2023-05-02T20:30:53.326Z,14.30
2023-05-02T20:33:19.992Z,14.20
2023-05-02T20:35:52.902Z,14.30
2023-05-02T20:38:20.382Z,14.20
2023-05-02T20:40:46.919Z,14.20
2023-05-02T20:43:14.221Z,14.20
2023-05-02T20:45:40.946Z,14.10
2023-05-02T20:48:07.815Z,14.10
2023-05-02T20:50:34.392Z,14.00
2023-05-02T20:53:01.157Z,14.00
2023-05-02T20:55:27.942Z,13.90
2023-05-02T20:57:54.491Z,13.80
2023-05-02T21:00:24.035Z,13.80
2023-05-02T21:02:51.017Z,13.80
2023-05-02T21:05:17.744Z,13.80
2023-05-02T21:07:44.813Z,13.70
2023-05-02T21:10:11.566Z,13.70
2023-05-02T21:12:38.628Z,13.70
2023-05-02T21:15:05.782Z,13.70
2023-05-02T21:17:32.325Z,13.70
2023-05-02T21:19:59.027Z,13.70
2023-05-02T21:22:26.895Z,13.60
2023-05-02T21:24:53.473Z,13.60
2023-05-02T21:27:20.049Z,13.50
2023-05-02T21:29:46.693Z,13.50
2023-05-02T21:32:13.332Z,13.40
2023-05-02T21:34:39.961Z,13.40
2023-05-02T21:37:06.809Z,13.40
2023-05-02T21:39:33.392Z,13.30
2023-05-02T21:42:01.340Z,13.30
2023-05-02T21:44:27.877Z,13.30
2023-05-02T21:46:54.447Z,13.30
2023-05-02T21:49:21.207Z,13.30
2023-05-02T21:51:47.695Z,13.30
2023-05-02T21:54:14.283Z,13.20
2023-05-02T21:56:41.094Z,13.20
2023-05-02T21:59:07.722Z,13.20
2023-05-02T22:01:34.233Z,13.20
2023-05-02T22:04:00.856Z,13.20
2023-05-02T22:06:28.392Z,13.10
2023-05-02T22:08:54.970Z,13.20
2023-05-02T22:11:21.777Z,13.20
2023-05-02T22:13:48.775Z,13.20
2023-05-02T22:16:15.821Z,13.20
2023-05-02T22:18:44.637Z,13.20
2023-05-02T22:21:11.998Z,13.30
2023-05-02T22:23:38.910Z,13.20
2023-05-02T22:26:05.586Z,13.30
2023-05-02T22:28:32.184Z,13.20
2023-05-02T22:30:58.827Z,13.30
2023-05-02T22:33:25.394Z,13.30
2023-05-02T22:35:51.920Z,13.30
2023-05-02T22:38:19.420Z,13.30
2023-05-02T22:40:46.426Z,13.20
2023-05-02T22:43:13.051Z,13.20
2023-05-02T22:45:39.667Z,13.30
2023-05-02T22:48:07.234Z,13.20
2023-05-02T22:50:33.977Z,13.20
2023-05-02T22:53:03.611Z,13.10
2023-05-02T22:55:30.311Z,13.10
2023-05-02T22:57:57.162Z,13.10
2023-05-02T23:00:24.665Z,13.10
2023-05-02T23:02:51.392Z,13.00
2023-05-02T23:05:17.991Z,13.00
2023-05-02T23:07:44.671Z,12.90
2023-05-02T23:10:11.264Z,12.80
2023-05-02T23:12:38.165Z,12.80
2023-05-02T23:15:04.870Z,12.80
2023-05-02T23:17:31.562Z,12.70
2023-05-02T23:19:58.755Z,12.70
2023-05-02T23:22:25.474Z,12.70
2023-05-02T23:24:52.123Z,12.70
2023-05-02T23:27:18.661Z,12.60
2023-05-02T23:29:48.037Z,12.60
2023-05-02T23:32:15.166Z,12.60
2023-05-02T23:34:41.841Z,12.60
2023-05-02T23:37:08.809Z,12.50
2023-05-02T23:39:35.450Z,12.50
2023-05-02T23:42:03.637Z,12.40
2023-05-02T23:44:31.167Z,12.40
2023-05-02T23:46:58.913Z,12.30
2023-05-02T23:49:25.733Z,12.30
2023-05-02T23:51:52.267Z,12.20
2023-05-02T23:54:18.782Z,12.10
2023-05-02T23:56:46.136Z,11.90
2023-05-02T23:59:12.705Z,11.90
